createdAt,value
2023-02-09T00:01:28.170Z,86.87
2023-02-09T00:03:56.599Z,81.73
2023-02-09T00:06:24.793Z,83.37
2023-02-09T00:08:53.165Z,82.33
2023-02-09T00:11:49.584Z,83.17
2023-02-09T00:14:21.524Z,79.40
2023-02-09T00:16:51.287Z,80.93
2023-02-09T00:19:20.518Z,79.10
2023-02-09T00:21:48.733Z,85.07
2023-02-09T00:24:17.195Z,81.77
2023-02-09T00:26:45.329Z,80.20
2023-02-09T00:29:13.637Z,85.67
2023-02-09T00:31:42.607Z,83.73
2023-02-09T00:34:11.199Z,82.37
2023-02-09T00:36:38.942Z,81.93
2023-02-09T00:39:07.750Z,84.77
2023-02-09T00:41:55.097Z,81.80
2023-02-09T00:44:23.113Z,83.23
2023-02-09T00:46:52.511Z,81.07
2023-02-09T00:49:20.620Z,82.03
2023-02-09T00:51:48.304Z,85.77
2023-02-09T00:54:17.162Z,82.57
2023-02-09T00:56:46.723Z,84.93
2023-02-09T00:59:14.752Z,83.67
2023-02-09T01:01:42.686Z,83.73
2023-02-09T01:04:10.781Z,86.30
2023-02-09T01:06:38.707Z,82.37
2023-02-09T01:09:06.796Z,83.33
2023-02-09T01:11:34.630Z,84.40
2023-02-09T01:14:04.501Z,78.67
2023-02-09T01:16:32.582Z,81.07
2023-02-09T01:19:01.967Z,79.70
2023-02-09T01:21:30.700Z,80.03
2023-02-09T01:23:58.966Z,79.13
2023-02-09T01:26:26.722Z,75.90
2023-02-09T01:28:54.766Z,78.63
2023-02-09T01:31:28.539Z,77.30
2023-02-09T01:33:59.403Z,76.20
2023-02-09T01:36:28.314Z,76.93
2023-02-09T01:38:56.986Z,75.00
2023-02-09T01:41:25.360Z,73.60
2023-02-09T01:44:02.414Z,73.50
2023-02-09T01:46:33.216Z,75.87
2023-02-09T01:49:02.833Z,78.40
2023-02-09T01:51:34.186Z,76.63
2023-02-09T01:54:06.575Z,72.80
2023-02-09T01:56:34.753Z,73.83
2023-02-09T01:59:02.618Z,79.10
2023-02-09T02:01:31.075Z,77.10
2023-02-09T02:03:58.986Z,73.20
2023-02-09T02:06:27.087Z,74.57
2023-02-09T02:09:12.084Z,72.53
2023-02-09T02:11:42.698Z,72.90
2023-02-09T02:14:35.160Z,71.27
2023-02-09T02:17:03.230Z,67.53
2023-02-09T02:19:43.058Z,74.40
2023-02-09T02:22:19.857Z,67.30
2023-02-09T02:24:47.759Z,67.53
2023-02-09T02:27:24.125Z,70.13
2023-02-09T02:30:04.105Z,69.97
2023-02-09T02:32:47.550Z,67.63
2023-02-09T02:35:26.757Z,65.73
2023-02-09T02:38:11.625Z,66.07
2023-02-09T02:40:57.765Z,66.53
2023-02-09T02:43:49.774Z,66.33
2023-02-09T02:46:17.766Z,67.63
2023-02-09T02:49:16.168Z,67.67
2023-02-09T02:51:47.111Z,66.70
2023-02-09T02:54:38.571Z,67.57
2023-02-09T02:57:19.041Z,65.87
2023-02-09T02:59:53.675Z,68.47
2023-02-09T03:02:26.470Z,69.23
2023-02-09T03:04:56.960Z,66.47
2023-02-09T03:07:24.833Z,66.43
2023-02-09T03:09:57.533Z,70.30
2023-02-09T03:13:13.066Z,67.43
2023-02-09T03:15:41.165Z,68.27
2023-02-09T03:18:26.551Z,68.10
2023-02-09T03:21:04.999Z,67.70
2023-02-09T03:23:41.860Z,64.77
2023-02-09T03:26:27.207Z,62.20
2023-02-09T03:28:58.318Z,61.23
2023-02-09T03:31:28.218Z,62.67
2023-02-09T03:34:00.039Z,59.83
2023-02-09T03:36:34.732Z,60.93
2023-02-09T03:39:03.099Z,61.47
2023-02-09T03:41:31.320Z,61.13
2023-02-09T03:44:17.572Z,66.30
2023-02-09T03:46:45.704Z,64.60
2023-02-09T03:49:16.217Z,65.77
2023-02-09T03:51:44.390Z,65.83
2023-02-09T03:54:12.214Z,64.20
2023-02-09T03:56:40.375Z,65.73
2023-02-09T03:59:08.283Z,65.43
2023-02-09T04:01:36.536Z,65.93
2023-02-09T04:04:04.844Z,64.53
2023-02-09T04:06:33.815Z,62.07
2023-02-09T04:09:01.715Z,67.63
2023-02-09T04:11:29.776Z,65.93
2023-02-09T04:13:57.663Z,68.77
2023-02-09T04:16:25.326Z,75.00
2023-02-09T04:18:53.231Z,72.80
2023-02-09T04:21:21.436Z,68.80
2023-02-09T04:23:50.949Z,72.43
2023-02-09T04:26:19.056Z,71.73
2023-02-09T04:28:47.015Z,66.20
2023-02-09T04:31:15.480Z,69.23
2023-02-09T04:33:43.661Z,69.17
2023-02-09T04:36:11.802Z,73.53
2023-02-09T04:38:39.589Z,74.27
2023-02-09T04:41:07.320Z,80.17
2023-02-09T04:43:35.111Z,75.17
2023-02-09T04:46:03.178Z,70.03
2023-02-09T04:48:30.698Z,70.90
2023-02-09T04:50:58.714Z,72.80
2023-02-09T04:53:26.764Z,74.07
2023-02-09T04:55:54.804Z,75.43
2023-02-09T04:58:41.139Z,70.80
2023-02-09T05:01:11.860Z,72.40
2023-02-09T05:03:39.645Z,72.20
2023-02-09T05:06:07.706Z,69.87
2023-02-09T05:08:35.066Z,71.47
2023-02-09T05:11:02.874Z,69.80
2023-02-09T05:13:30.761Z,72.73
2023-02-09T05:15:58.487Z,75.97
2023-02-09T05:18:26.456Z,75.23
2023-02-09T05:20:54.098Z,77.33
2023-02-09T05:23:21.854Z,77.20
2023-02-09T05:25:49.464Z,84.33
2023-02-09T05:28:17.092Z,81.40
2023-02-09T05:30:45.161Z,77.63
2023-02-09T05:33:12.574Z,77.07
2023-02-09T05:35:40.165Z,77.20
2023-02-09T05:38:07.653Z,75.90
2023-02-09T05:40:35.196Z,78.50
2023-02-09T05:43:03.713Z,79.47
2023-02-09T05:45:31.478Z,82.23
2023-02-09T05:47:58.830Z,83.00
2023-02-09T05:50:26.449Z,76.20
2023-02-09T05:52:56.616Z,75.63
2023-02-09T05:55:24.107Z,79.30
2023-02-09T05:57:51.506Z,76.50
2023-02-09T06:00:20.172Z,81.77
2023-02-09T06:02:47.939Z,82.27
2023-02-09T06:05:15.837Z,83.43
2023-02-09T06:07:43.604Z,89.77
2023-02-09T06:10:11.371Z,97.27
2023-02-09T06:12:41.083Z,96.33
2023-02-09T06:15:10.586Z,93.10
2023-02-09T06:17:38.436Z,91.20
2023-02-09T06:20:06.607Z,93.70
2023-02-09T06:22:34.446Z,88.87
2023-02-09T06:25:02.192Z,89.63
2023-02-09T06:27:29.577Z,87.93
2023-02-09T06:29:57.375Z,83.90
2023-02-09T06:32:24.660Z,84.77
2023-02-09T06:34:52.322Z,86.90
2023-02-09T06:37:19.611Z,83.10
2023-02-09T06:39:47.276Z,81.30
2023-02-09T06:42:14.554Z,80.10
2023-02-09T06:44:42.181Z,80.53
2023-02-09T06:47:09.467Z,79.77
2023-02-09T06:49:37.534Z,77.47
2023-02-09T06:52:05.598Z,80.63
2023-02-09T06:54:33.256Z,80.17
2023-02-09T06:57:01.138Z,79.63
2023-02-09T06:59:29.106Z,79.77
2023-02-09T07:01:56.463Z,85.37
2023-02-09T07:04:24.141Z,88.20
2023-02-09T07:06:51.394Z,84.00
2023-02-09T07:09:19.057Z,80.03
2023-02-09T07:11:46.455Z,78.67
2023-02-09T07:14:14.177Z,77.70
2023-02-09T07:16:41.836Z,74.33
2023-02-09T07:19:09.695Z,73.40
2023-02-09T07:21:37.103Z,73.27
2023-02-09T07:24:05.169Z,74.57
2023-02-09T07:26:32.720Z,71.20
2023-02-09T07:29:01.456Z,72.53
2023-02-09T07:31:29.543Z,70.97
2023-02-09T07:33:58.478Z,69.70
2023-02-09T07:36:26.236Z,65.93
2023-02-09T07:38:56.056Z,68.07
2023-02-09T07:41:25.536Z,68.93
2023-02-09T07:43:54.102Z,69.87
2023-02-09T07:46:22.958Z,67.77
2023-02-09T07:48:51.330Z,70.90
2023-02-09T07:51:20.706Z,70.03
2023-02-09T07:53:48.401Z,69.47
2023-02-09T07:56:16.426Z,67.97
2023-02-09T07:58:44.802Z,68.07
2023-02-09T08:01:13.494Z,67.37
2023-02-09T08:03:44.787Z,76.90
2023-02-09T08:06:42.507Z,71.93
2023-02-09T08:09:12.839Z,76.33
2023-02-09T08:12:03.105Z,74.20
2023-02-09T08:14:43.202Z,67.50
2023-02-09T08:17:20.645Z,65.30
2023-02-09T08:19:54.501Z,72.00
2023-02-09T08:22:25.360Z,70.77
2023-02-09T08:24:53.563Z,63.50
2023-02-09T08:27:21.276Z,61.40
2023-02-09T08:29:50.051Z,66.33
2023-02-09T08:32:17.967Z,65.73
2023-02-09T08:34:46.433Z,62.73
2023-02-09T08:37:14.349Z,66.77
2023-02-09T08:39:42.756Z,65.43
2023-02-09T08:42:10.428Z,68.80
2023-02-09T08:44:39.730Z,68.27
2023-02-09T08:47:09.332Z,60.87
2023-02-09T08:49:37.889Z,68.77
2023-02-09T08:52:08.640Z,66.13
2023-02-09T08:54:37.242Z,62.80
2023-02-09T08:57:05.967Z,63.57
2023-02-09T08:59:34.432Z,66.63
2023-02-09T09:02:02.518Z,69.53
2023-02-09T09:04:30.701Z,60.40
2023-02-09T09:06:58.496Z,52.93
2023-02-09T09:09:26.511Z,54.50
2023-02-09T09:11:54.179Z,55.73
2023-02-09T09:14:22.403Z,49.20
2023-02-09T09:16:50.173Z,43.53
2023-02-09T09:19:18.211Z,44.30
2023-02-09T09:21:45.881Z,41.80
2023-02-09T09:24:13.984Z,44.70
2023-02-09T09:26:41.761Z,42.83
2023-02-09T09:29:10.777Z,46.30
2023-02-09T09:31:38.581Z,39.33
2023-02-09T09:34:06.843Z,42.03
2023-02-09T09:36:34.628Z,43.57
2023-02-09T09:39:02.701Z,43.57
2023-02-09T09:41:36.975Z,44.03
2023-02-09T09:44:19.087Z,47.03
2023-02-09T09:46:50.289Z,48.10
2023-02-09T09:49:26.558Z,49.57
2023-02-09T09:52:02.349Z,49.27
2023-02-09T09:54:32.625Z,53.80
2023-02-09T09:57:00.473Z,50.90
2023-02-09T09:59:38.671Z,50.30
2023-02-09T10:02:39.443Z,48.47
2023-02-09T10:05:23.760Z,47.97
2023-02-09T10:08:05.473Z,51.93
2023-02-09T10:10:51.916Z,50.40
2023-02-09T10:13:32.334Z,46.03
2023-02-09T10:16:00.568Z,45.97
2023-02-09T10:18:30.206Z,46.10
2023-02-09T10:21:08.930Z,44.97
2023-02-09T10:23:43.779Z,44.00
2023-02-09T10:26:19.632Z,44.70
2023-02-09T10:28:56.743Z,42.47
2023-02-09T10:31:25.474Z,42.57
2023-02-09T10:34:02.600Z,43.17
2023-02-09T10:36:49.024Z,40.97
2023-02-09T10:39:33.996Z,41.23
2023-02-09T10:42:17.101Z,39.77
2023-02-09T10:44:56.761Z,40.97
2023-02-09T10:47:31.405Z,42.90
2023-02-09T10:50:18.124Z,46.50
2023-02-09T10:52:58.342Z,46.90
2023-02-09T10:55:38.253Z,49.07
2023-02-09T10:58:10.390Z,49.33
2023-02-09T11:01:09.294Z,51.43
2023-02-09T11:03:56.987Z,50.57
2023-02-09T11:06:25.895Z,51.07
2023-02-09T11:09:13.882Z,52.37
2023-02-09T11:11:46.818Z,51.60
2023-02-09T11:14:19.590Z,51.17
2023-02-09T11:17:04.260Z,51.07
2023-02-09T11:19:33.670Z,50.80
2023-02-09T11:22:05.078Z,49.93
2023-02-09T11:24:45.356Z,46.67
2023-02-09T11:27:19.643Z,46.23
2023-02-09T11:29:48.539Z,42.50
2023-02-09T11:32:40.529Z,44.43
2023-02-09T11:35:14.475Z,45.73
2023-02-09T11:37:54.241Z,45.90
2023-02-09T11:40:44.373Z,46.13
2023-02-09T11:43:19.480Z,48.67
2023-02-09T11:45:56.094Z,46.70
2023-02-09T11:48:41.783Z,47.50
2023-02-09T11:51:20.622Z,48.37
2023-02-09T11:54:09.009Z,48.87
2023-02-09T11:56:44.724Z,47.33
2023-02-09T11:59:32.923Z,49.53
2023-02-09T12:02:25.250Z,49.20
2023-02-09T12:05:02.846Z,46.57
2023-02-09T12:07:52.194Z,47.17
2023-02-09T12:10:37.697Z,45.90
2023-02-09T12:13:25.124Z,45.10
2023-02-09T12:16:00.840Z,42.53
2023-02-09T12:18:33.406Z,42.97
2023-02-09T12:21:05.837Z,40.07
2023-02-09T12:23:44.254Z,38.47
2023-02-09T12:26:12.162Z,38.93
2023-02-09T12:29:17.000Z,37.43
2023-02-09T12:32:06.406Z,36.60
2023-02-09T12:34:49.847Z,34.43
2023-02-09T12:37:19.778Z,35.57
2023-02-09T12:40:06.514Z,33.42
2023-02-09T12:42:42.597Z,33.75
2023-02-09T12:45:29.004Z,34.42
2023-02-09T12:48:01.658Z,31.02
2023-02-09T12:50:51.725Z,30.42
2023-02-09T12:53:22.720Z,32.47
2023-02-09T12:56:09.545Z,30.73
2023-02-09T12:58:40.096Z,30.17
2023-02-09T13:01:08.447Z,31.52
2023-02-09T13:03:51.238Z,33.47
2023-02-09T13:06:37.582Z,33.60
2023-02-09T13:09:08.405Z,33.30
2023-02-09T13:11:51.798Z,31.33
2023-02-09T13:14:23.119Z,31.92
2023-02-09T13:17:02.966Z,32.80
2023-02-09T13:19:51.399Z,32.37
2023-02-09T13:22:31.478Z,34.00
2023-02-09T13:25:10.959Z,33.20
2023-02-09T13:27:49.309Z,33.53
2023-02-09T13:30:29.524Z,32.07
2023-02-09T13:33:08.705Z,34.73
2023-02-09T13:35:40.664Z,33.27
2023-02-09T13:38:22.045Z,33.83
2023-02-09T13:40:51.262Z,32.40
2023-02-09T13:43:25.379Z,34.97
2023-02-09T13:45:54.946Z,33.90
2023-02-09T13:48:24.586Z,32.87
2023-02-09T13:50:53.188Z,32.03
2023-02-09T13:53:24.437Z,33.57
2023-02-09T13:55:52.840Z,30.83
2023-02-09T13:58:22.912Z,31.93
2023-02-09T14:01:11.803Z,30.87
2023-02-09T14:03:57.096Z,30.50
2023-02-09T14:06:35.229Z,27.93
2023-02-09T14:09:04.658Z,28.87
2023-02-09T14:11:42.718Z,28.50
2023-02-09T14:14:16.654Z,28.53
2023-02-09T14:16:53.444Z,28.80
2023-02-09T14:19:27.887Z,28.43
2023-02-09T14:21:57.274Z,28.37
2023-02-09T14:24:27.029Z,28.03
2023-02-09T14:26:57.467Z,27.97
2023-02-09T14:29:34.219Z,27.57
2023-02-09T14:32:07.119Z,27.27
2023-02-09T14:34:36.531Z,28.27
2023-02-09T14:37:26.049Z,27.17
2023-02-09T14:39:56.993Z,26.87
2023-02-09T14:42:25.737Z,27.77
2023-02-09T14:45:23.989Z,30.70
2023-02-09T14:47:53.232Z,30.10
2023-02-09T14:50:24.080Z,32.73
2023-02-09T14:53:05.348Z,31.47
2023-02-09T14:55:40.482Z,30.97
2023-02-09T14:58:13.475Z,32.57
2023-02-09T15:00:42.153Z,32.67
2023-02-09T15:03:10.178Z,30.53
2023-02-09T15:05:39.303Z,31.97
2023-02-09T15:08:09.081Z,31.90
2023-02-09T15:10:39.188Z,33.80
2023-02-09T15:13:07.662Z,33.73
2023-02-09T15:15:37.919Z,33.33
2023-02-09T15:18:06.499Z,35.60
2023-02-09T15:20:35.175Z,34.20
2023-02-09T15:23:03.440Z,35.67
2023-02-09T15:25:32.597Z,32.90
2023-02-09T15:28:02.966Z,38.63
2023-02-09T15:30:33.907Z,35.57
2023-02-09T15:33:02.287Z,33.93
2023-02-09T15:35:31.090Z,33.37
2023-02-09T15:38:01.042Z,35.40
2023-02-09T15:40:51.656Z,34.73
2023-02-09T15:43:39.830Z,33.80
2023-02-09T15:46:27.623Z,34.60
2023-02-09T15:48:55.634Z,33.47
2023-02-09T15:51:25.350Z,34.40
2023-02-09T15:53:58.274Z,35.37
2023-02-09T15:56:26.370Z,34.60
2023-02-09T15:58:54.634Z,35.80
2023-02-09T16:01:22.692Z,33.30
2023-02-09T16:03:50.405Z,34.90
2023-02-09T16:06:24.858Z,35.03
2023-02-09T16:08:53.720Z,35.90
2023-02-09T16:11:24.154Z,35.97
2023-02-09T16:13:52.041Z,33.17
2023-02-09T16:16:20.596Z,43.90
2023-02-09T16:18:48.666Z,50.20
2023-02-09T16:21:19.995Z,64.90
2023-02-09T16:23:48.246Z,87.00
2023-02-09T16:26:16.790Z,108.00
2023-02-09T16:28:44.539Z,125.10
2023-02-09T16:31:12.615Z,118.77
2023-02-09T16:33:41.864Z,125.37
2023-02-09T16:36:18.355Z,130.17
2023-02-09T16:38:46.418Z,122.57
2023-02-09T16:41:34.737Z,114.57
2023-02-09T16:44:02.944Z,115.70
2023-02-09T16:46:31.664Z,118.87
2023-02-09T16:49:01.731Z,115.43
2023-02-09T16:51:29.850Z,118.37
2023-02-09T16:53:58.623Z,104.47
2023-02-09T16:56:27.673Z,61.00
2023-02-09T16:58:55.495Z,45.67
2023-02-09T17:01:24.316Z,41.40
2023-02-09T17:03:56.528Z,40.43
2023-02-09T17:06:27.749Z,39.60
2023-02-09T17:08:56.808Z,36.37
2023-02-09T17:11:27.483Z,36.03
2023-02-09T17:13:55.463Z,37.67
2023-02-09T17:16:31.650Z,36.47
2023-02-09T17:19:03.376Z,34.40
2023-02-09T17:21:35.618Z,32.53
2023-02-09T17:24:05.315Z,35.23
2023-02-09T17:26:36.648Z,34.60
2023-02-09T17:29:05.644Z,33.17
2023-02-09T17:31:50.869Z,33.30
2023-02-09T17:34:27.570Z,33.00
2023-02-09T17:36:58.852Z,33.20
2023-02-09T17:39:30.687Z,32.87
2023-02-09T17:42:01.476Z,31.67
2023-02-09T17:44:45.640Z,32.70
2023-02-09T17:47:19.271Z,33.17
2023-02-09T17:49:49.835Z,32.20
2023-02-09T17:52:21.186Z,32.53
2023-02-09T17:54:51.849Z,32.50
2023-02-09T17:57:22.078Z,32.53
2023-02-09T17:59:50.926Z,32.83
2023-02-09T18:02:20.910Z,32.93
2023-02-09T18:04:50.076Z,35.90
2023-02-09T18:07:21.865Z,41.90
2023-02-09T18:09:52.801Z,40.37
2023-02-09T18:12:25.682Z,39.97
2023-02-09T18:14:55.484Z,34.57
2023-02-09T18:17:25.269Z,34.73
2023-02-09T18:19:54.747Z,34.70
2023-02-09T18:22:29.160Z,34.00
2023-02-09T18:25:02.116Z,33.40
2023-02-09T18:27:32.379Z,33.67
2023-02-09T18:30:06.118Z,32.70
2023-02-09T18:32:36.366Z,32.73
2023-02-09T18:35:06.252Z,31.57
2023-02-09T18:37:35.508Z,30.67
2023-02-09T18:40:04.591Z,32.07
2023-02-09T18:42:33.753Z,32.77
2023-02-09T18:45:02.701Z,31.83
2023-02-09T18:47:33.635Z,32.60
2023-02-09T18:50:03.704Z,33.13
2023-02-09T18:52:35.229Z,31.37
2023-02-09T18:55:04.262Z,31.87
2023-02-09T18:57:34.292Z,31.13
2023-02-09T19:00:03.888Z,31.70
2023-02-09T19:02:33.861Z,30.17
2023-02-09T19:05:05.327Z,29.93
2023-02-09T19:07:36.687Z,29.87
2023-02-09T19:10:06.827Z,30.57
2023-02-09T19:12:35.727Z,28.73
2023-02-09T19:15:05.116Z,29.67
2023-02-09T19:17:34.676Z,29.40
2023-02-09T19:20:06.639Z,27.50
2023-02-09T19:22:36.454Z,29.97
2023-02-09T19:25:05.348Z,28.43
2023-02-09T19:27:35.131Z,29.00
2023-02-09T19:30:04.605Z,29.13
2023-02-09T19:32:34.139Z,29.10
2023-02-09T19:35:04.675Z,33.17
2023-02-09T19:37:33.769Z,33.83
2023-02-09T19:40:07.675Z,34.23
2023-02-09T19:42:37.447Z,30.27
2023-02-09T19:45:06.452Z,28.00
2023-02-09T19:47:35.838Z,27.97
2023-02-09T19:50:04.933Z,27.10
2023-02-09T19:52:37.768Z,26.53
2023-02-09T19:55:06.641Z,27.33
2023-02-09T19:57:35.276Z,28.27
2023-02-09T20:00:06.032Z,27.27
2023-02-09T20:02:38.285Z,27.30
2023-02-09T20:05:09.656Z,30.53
2023-02-09T20:07:39.092Z,33.87
2023-02-09T20:10:08.617Z,34.90
2023-02-09T20:12:38.700Z,29.37
2023-02-09T20:15:07.314Z,27.33
2023-02-09T20:17:36.830Z,28.77
2023-02-09T20:20:06.544Z,27.80
2023-02-09T20:22:35.667Z,26.83
2023-02-09T20:25:04.069Z,26.87
2023-02-09T20:27:33.023Z,26.90
2023-02-09T20:30:04.887Z,24.97
2023-02-09T20:32:33.408Z,26.97
2023-02-09T20:35:01.258Z,25.83
2023-02-09T20:37:30.408Z,25.67
2023-02-09T20:39:59.088Z,25.73
2023-02-09T20:42:46.520Z,25.30
2023-02-09T20:45:34.937Z,25.23
2023-02-09T20:48:05.855Z,25.83
2023-02-09T20:50:36.500Z,26.47
2023-02-09T20:53:05.876Z,27.27
2023-02-09T20:55:36.919Z,27.30
2023-02-09T20:58:07.508Z,25.10
2023-02-09T21:00:37.474Z,31.47
2023-02-09T21:03:08.265Z,29.70
2023-02-09T21:05:37.548Z,29.50
2023-02-09T21:08:09.909Z,27.27
2023-02-09T21:10:39.074Z,24.27
2023-02-09T21:13:10.496Z,24.77
2023-02-09T21:15:43.686Z,24.00
2023-02-09T21:18:14.954Z,23.43
2023-02-09T21:20:44.410Z,23.53
2023-02-09T21:23:16.185Z,23.50
2023-02-09T21:25:46.448Z,24.17
2023-02-09T21:28:16.489Z,23.20
2023-02-09T21:30:46.338Z,23.33
2023-02-09T21:33:16.272Z,25.43
2023-02-09T21:35:45.182Z,26.67
2023-02-09T21:38:14.306Z,26.60
2023-02-09T21:40:42.454Z,25.50
2023-02-09T21:43:12.183Z,24.60
2023-02-09T21:45:41.815Z,24.10
2023-02-09T21:48:14.580Z,25.33
2023-02-09T21:50:45.437Z,25.97
2023-02-09T21:53:14.181Z,26.33
2023-02-09T21:55:43.755Z,25.20
2023-02-09T21:58:13.676Z,24.73
2023-02-09T22:00:43.011Z,26.13
2023-02-09T22:03:13.028Z,24.90
2023-02-09T22:05:41.156Z,25.03
2023-02-09T22:08:09.637Z,24.57
2023-02-09T22:10:37.819Z,24.33
2023-02-09T22:13:09.024Z,24.93
2023-02-09T22:15:40.855Z,24.13
2023-02-09T22:18:09.697Z,24.93
2023-02-09T22:20:42.313Z,24.37
2023-02-09T22:23:11.256Z,24.40
2023-02-09T22:25:39.605Z,24.77
2023-02-09T22:28:07.969Z,23.57
2023-02-09T22:30:36.020Z,25.10
2023-02-09T22:33:04.604Z,24.67
2023-02-09T22:35:32.925Z,25.17
2023-02-09T22:38:01.199Z,25.27
2023-02-09T22:40:29.514Z,24.37
2023-02-09T22:42:57.902Z,24.27
2023-02-09T22:45:25.734Z,25.73
2023-02-09T22:47:53.855Z,24.40
2023-02-09T22:50:21.844Z,24.73
2023-02-09T22:52:49.997Z,25.30
2023-02-09T22:55:17.759Z,24.73
2023-02-09T22:57:45.815Z,26.77
2023-02-09T23:00:14.688Z,25.70
2023-02-09T23:02:42.726Z,25.30
2023-02-09T23:05:10.668Z,25.37
2023-02-09T23:07:38.838Z,24.60
2023-02-09T23:10:07.067Z,23.50
2023-02-09T23:12:34.760Z,25.50
2023-02-09T23:15:02.437Z,23.70
2023-02-09T23:17:30.505Z,25.00
2023-02-09T23:19:58.462Z,23.70
2023-02-09T23:22:26.620Z,23.67
2023-02-09T23:24:55.120Z,23.57
2023-02-09T23:27:23.108Z,24.90
2023-02-09T23:29:50.861Z,25.57
2023-02-09T23:32:18.862Z,25.87
2023-02-09T23:34:46.555Z,23.37
2023-02-09T23:37:19.124Z,23.53
2023-02-09T23:39:56.504Z,22.07
2023-02-09T23:42:24.591Z,22.60
2023-02-09T23:44:52.419Z,24.50
2023-02-09T23:47:20.409Z,23.73
2023-02-09T23:49:49.784Z,23.90
2023-02-09T23:52:17.804Z,21.33
2023-02-09T23:54:45.642Z,23.07
2023-02-09T23:57:13.747Z,22.87
2023-02-09T23:59:41.434Z,23.10
